Etusivu
METAR-TAF:

METAR-TAF

Lentoasemat :

Marathon, Florida, Yhdysvallat

Leveyspiiri: 24-43-33N, Pituuspiiri: 081-02-52W, korkeus merenpinnasta: 2 m

Tämänhetkinen sää

Tämä raportti tehtiin 45 minuuttia sitten, kello 00.53 UTC
Tuuli 6 kn luoteesta
Lämpötila 23°C
Kosteus 65%
Ilmanpaine 1016 hPa
Näkyvyys: 16.1 km
selkeää

METAR: KMTH 200053Z AUTO 32006KT 10SM CLR 23/16 A3001 RMK AO2 SLP163 T02330156

Aika: 20:38 (01:38 UTC)

Sääennuste

Tämä raportti tehtiin 4 tuntia ja 30 minuuttia sitten, kello 21.08 UTC
Ennuste voimassa 19. päivästä klo 21 UTC - 20. päivään klo 18 UTC
Tuuli 10 kn pohjoisen/luoteesta puuskistuen 18 kn:hen
Näkyvyys: 10 km
Hajanaisia pilviä 3500 ft:n korkeudessa
From 20. päivästä klo 0400 UTC
Tuuli 12 kn pohjoisesta/koillisesta puuskistuen 20 kn:hen
Näkyvyys: 10 km
selkeää

TAF: KMTH 192108Z 1921/2018 33010G18KT P6SM SCT035 FM200400 02012G20KT P6SM SKC

Säähavainnot ja -ennusteet yli 4000 lentoasemalta (METAR- ja TAF-raportit).

Käytössä olevat sääasemat on merkitty karttaan keltaisilla ja punaisilla pisteillä.

Aseta hiiri pisteen päälle nähdäksesi sääaseman nimen.

Klikkaa sitten nähdäksesi säähavainnot ja -ennusteet.

Kartan vaihtaminen: klikkaa mustalla rastilla varustettuja vihreitä pisteitä, niin voit zoomata sisään; viivalla varustettua vihreää pistettä, niin voit zoomata ulos tai vihreitä nuolia, niin pääset viereisille kartoille.


METAR-TAF: